Time;durP1;ratioP1;P1;durP2;ratioP2;P2;SDS_P1;SDS_P2;PMS_P1;PMS_P2;Temp;Humidity;BMP_temperature;BMP_pressure;BME280_temperature;BME280_humidity;BME280_pressure;Samples;Min_cycle;Max_cycle;Signal;HPM_P1;HPM_P2
2023/03/17 00:00:58;;;;;;;63.90;33.30;;;;;;;-2.62;75.27;100681.10;218756;1257;139204;-66
2023/03/17 00:06:04;;;;;;;65.00;29.70;;;;;;;-2.66;75.39;100681.27;218913;1258;139207;-66
2023/03/17 00:11:16;;;;;;;90.80;37.60;;;;;;;-2.63;75.65;100678.54;217366;1256;139913;-66
2023/03/17 00:16:33;;;;;;;196.30;71.30;;;;;;;-2.54;75.67;100665.92;217426;1257;139972;-65
2023/03/17 00:21:39;;;;;;;;;;;;;;;-2.54;75.57;100655.86;218053;1257;139627;-64
2023/03/17 00:26:43;;;;;;;146.90;55.10;;;;;;;-2.62;75.58;100656.21;218133;1260;125400;-64
2023/03/17 00:31:49;;;;;;;103.00;45.60;;;;;;;-2.70;75.78;100651.92;217893;1257;139966;-65
2023/03/17 00:36:54;;;;;;;86.80;37.50;;;;;;;-2.71;75.94;100651.67;217327;1260;140279;-63
2023/03/17 00:41:58;;;;;;;83.50;37.00;;;;;;;-2.71;75.75;100645.98;218203;1257;140022;-64
2023/03/17 00:47:02;;;;;;;81.90;39.00;;;;;;;-2.76;75.80;100640.14;218759;1257;140463;-63
2023/03/17 00:52:07;;;;;;;81.50;42.40;;;;;;;-2.77;75.83;100632.23;219071;1257;139883;-64
2023/03/17 00:57:12;;;;;;;79.60;40.50;;;;;;;-2.82;75.89;100624.95;218220;1257;140084;-63
2023/03/17 01:02:18;;;;;;;58.80;33.50;;;;;;;-2.90;75.94;100616.41;219194;1256;140144;-65
2023/03/17 01:07:23;;;;;;;77.30;39.90;;;;;;;-3.01;75.73;100617.34;217408;1260;140245;-64
2023/03/17 01:12:28;;;;;;;77.20;38.40;;;;;;;-3.07;75.86;100607.75;220181;1256;139794;-63
2023/03/17 01:17:34;;;;;;;103.90;46.10;;;;;;;-3.08;76.02;100608.67;217502;1255;139417;-61
2023/03/17 01:22:38;;;;;;;93.90;45.70;;;;;;;-3.03;76.13;100596.96;219951;1257;141058;-65
2023/03/17 01:27:44;;;;;;;93.20;48.90;;;;;;;-2.98;76.06;100595.54;220111;1257;140231;-65
2023/03/17 01:32:49;;;;;;;89.70;47.20;;;;;;;-2.95;76.04;100591.61;220101;1257;140530;-66
2023/03/17 01:37:58;;;;;;;90.20;51.80;;;;;;;-2.98;75.99;100587.73;220129;1257;140367;-65
2023/03/17 01:43:07;;;;;;;99.20;51.80;;;;;;;-2.95;76.17;100588.38;217823;1257;139767;-63
2023/03/17 01:48:12;;;;;;;105.30;50.80;;;;;;;-2.99;76.07;100588.50;217879;1257;140837;-63
2023/03/17 01:53:19;;;;;;;116.70;61.90;;;;;;;-3.11;76.15;100586.18;217970;1257;139516;-63
2023/03/17 01:58:25;;;;;;;98.20;49.10;;;;;;;-3.19;76.18;100590.63;218218;1257;139350;-63
2023/03/17 02:03:30;;;;;;;92.50;46.90;;;;;;;-3.19;76.33;100585.80;218453;1257;140523;-64
2023/03/17 02:08:35;;;;;;;105.60;51.70;;;;;;;-3.22;76.37;100581.65;218452;1257;141101;-65
2023/03/17 02:13:40;;;;;;;91.70;53.20;;;;;;;-3.25;76.14;100572.73;218458;1257;140571;-65
2023/03/17 02:18:46;;;;;;;104.20;52.00;;;;;;;-3.33;76.34;100566.21;217326;1257;139076;-62
2023/03/17 02:23:50;;;;;;;86.30;45.30;;;;;;;-3.39;76.51;100569.38;218092;1260;140247;-62
2023/03/17 02:28:54;;;;;;;99.70;51.00;;;;;;;-3.45;76.62;100574.55;217665;1257;139740;-66
2023/03/17 02:34:00;;;;;;;82.00;41.60;;;;;;;-3.50;76.92;100580.13;217632;1260;139399;-64
2023/03/17 02:39:04;;;;;;;101.50;51.40;;;;;;;-3.55;76.70;100581.45;217663;1257;140932;-63
2023/03/17 02:44:09;;;;;;;105.60;47.30;;;;;;;-3.54;76.99;100576.66;219325;1257;140233;-70
2023/03/17 02:49:14;;;;;;;84.60;46.00;;;;;;;-3.47;77.04;100572.77;217615;1260;141049;-68
2023/03/17 02:54:18;;;;;;;89.20;47.90;;;;;;;-3.42;77.21;100572.53;217628;1258;210623;-64
2023/03/17 02:59:23;;;;;;;93.70;49.70;;;;;;;-3.41;77.15;100574.27;217870;1258;139376;-66
2023/03/17 03:04:29;;;;;;;93.70;46.40;;;;;;;-3.45;77.25;100578.34;217372;1257;139043;-69
2023/03/17 03:09:34;;;;;;;68.80;41.30;;;;;;;-3.49;77.40;100578.98;218014;1257;139320;-67
2023/03/17 03:14:38;;;;;;;81.80;43.20;;;;;;;-3.53;77.43;100585.11;218180;1257;139186;-66
2023/03/17 03:19:44;;;;;;;85.80;40.90;;;;;;;-3.55;77.49;100565.08;219699;1258;139794;-65
2023/03/17 03:24:50;;;;;;;90.30;41.70;;;;;;;-3.55;77.61;100566.13;219605;1257;140362;-65
2023/03/17 03:29:54;;;;;;;89.00;40.70;;;;;;;-3.47;77.68;100574.38;220253;1257;140968;-66
2023/03/17 03:34:59;;;;;;;94.50;45.20;;;;;;;-3.39;77.49;100568.71;219993;1257;141443;-68
2023/03/17 03:40:06;;;;;;;77.60;40.80;;;;;;;-3.35;77.63;100575.86;219807;1257;140720;-67
2023/03/17 03:45:10;;;;;;;73.80;35.20;;;;;;;-3.39;77.53;100580.84;219275;1257;139395;-68
2023/03/17 03:50:16;;;;;;;67.50;33.40;;;;;;;-3.42;77.67;100579.50;220178;1257;140978;-68
2023/03/17 03:55:20;;;;;;;62.90;36.40;;;;;;;-3.40;77.76;100581.79;218173;1257;140401;-67
2023/03/17 04:00:24;;;;;;;76.80;36.20;;;;;;;-3.37;77.98;100574.56;219021;1257;142646;-68
2023/03/17 04:05:30;;;;;;;62.10;28.70;;;;;;;-3.36;78.11;100570.11;219058;1257;140233;-68
2023/03/17 04:10:35;;;;;;;52.40;28.90;;;;;;;-3.36;78.44;100574.15;218582;1259;139338;-66
2023/03/17 04:15:40;;;;;;;44.00;25.90;;;;;;;-3.32;78.75;100570.84;218043;1258;139469;-67
2023/03/17 04:20:45;;;;;;;47.00;23.40;;;;;;;-3.28;78.71;100570.20;219068;1257;139251;-67
2023/03/17 04:25:51;;;;;;;42.50;22.00;;;;;;;-3.23;78.68;100572.17;218043;1257;139452;-67
2023/03/17 04:30:57;;;;;;;42.20;20.90;;;;;;;-3.12;78.67;100570.26;217667;1260;140830;-67
2023/03/17 04:36:03;;;;;;;37.40;22.50;;;;;;;-2.99;78.73;100580.30;218176;1257;139921;-67
2023/03/17 04:41:09;;;;;;;31.60;17.30;;;;;;;-2.90;78.79;100572.98;218859;1257;140725;-67
2023/03/17 04:46:15;;;;;;;43.90;20.70;;;;;;;-2.89;78.68;100565.88;217841;1257;140185;-65
2023/03/17 04:51:20;;;;;;;33.90;18.00;;;;;;;-2.86;78.71;100570.67;217658;1257;139209;-64
2023/03/17 04:56:26;;;;;;;52.20;21.50;;;;;;;-2.78;78.93;100571.23;218127;1257;139410;-65
2023/03/17 05:01:35;;;;;;;36.80;19.30;;;;;;;-2.63;78.70;100570.32;218466;1258;141123;-65
2023/03/17 05:06:42;;;;;;;33.90;19.30;;;;;;;-2.48;78.82;100572.83;217602;1259;139687;-65
2023/03/17 05:11:47;;;;;;;28.00;15.50;;;;;;;-2.34;78.76;100578.84;218845;1260;139148;-65
2023/03/17 05:16:50;;;;;;;27.70;14.00;;;;;;;-2.24;78.90;100587.71;219061;1258;140418;-66
2023/03/17 05:21:54;;;;;;;30.40;16.20;;;;;;;-2.12;78.77;100594.31;217419;1258;139126;-65
2023/03/17 05:26:58;;;;;;;33.00;18.20;;;;;;;-1.93;78.52;100601.04;218434;1257;139780;-65
2023/03/17 05:32:03;;;;;;;28.70;18.60;;;;;;;-1.68;78.37;100600.23;218113;1260;139868;-65
2023/03/17 05:37:07;;;;;;;28.00;15.00;;;;;;;-1.43;78.32;100606.48;219955;1257;140031;-68
2023/03/17 05:42:11;;;;;;;23.90;15.20;;;;;;;-1.26;77.94;100599.96;220341;1257;139713;-68
2023/03/17 05:47:15;;;;;;;30.40;17.80;;;;;;;-1.18;77.75;100582.59;220257;1257;141413;-68
2023/03/17 05:52:19;;;;;;;28.20;15.90;;;;;;;-1.05;77.55;100572.41;219802;1258;139516;-67
2023/03/17 05:57:23;;;;;;;28.90;18.60;;;;;;;-0.89;77.49;100562.20;218380;1258;139957;-67
2023/03/17 06:02:28;;;;;;;22.30;16.30;;;;;;;-0.75;77.48;100565.21;219773;1257;139263;-68
2023/03/17 06:07:33;;;;;;;29.90;15.90;;;;;;;-0.59;77.37;100556.65;218414;1257;139029;-67
2023/03/17 06:12:56;;;;;;;25.40;18.90;;;;;;;-0.42;77.30;100558.83;218339;1257;140536;-69
2023/03/17 06:18:03;;;;;;;33.60;18.20;;;;;;;-0.20;76.87;100559.55;219219;1257;139867;-69
2023/03/17 06:23:07;;;;;;;27.00;14.50;;;;;;;-0.03;77.08;100558.42;217595;1257;139664;-69
2023/03/17 06:28:12;;;;;;;27.70;16.90;;;;;;;0.11;76.58;100555.85;218397;1258;141633;-68
2023/03/17 06:33:18;;;;;;;35.30;20.40;;;;;;;0.29;76.36;100554.47;218327;1259;139720;-68
2023/03/17 06:38:22;;;;;;;31.70;19.90;;;;;;;0.50;75.84;100553.50;218111;1257;139533;-68
2023/03/17 06:43:26;;;;;;;32.50;18.10;;;;;;;0.69;76.11;100556.98;217695;1257;138658;-68
2023/03/17 06:48:32;;;;;;;38.60;19.50;;;;;;;0.84;75.76;100562.33;217490;1257;139435;-69
2023/03/17 06:53:37;;;;;;;31.10;17.00;;;;;;;1.07;75.77;100567.19;218759;1257;139288;-69
2023/03/17 06:58:41;;;;;;;24.60;16.20;;;;;;;1.36;75.12;100570.08;218457;1258;141551;-68
2023/03/17 07:03:46;;;;;;;25.80;16.70;;;;;;;1.72;75.23;100582.52;218543;1256;139362;-68
2023/03/17 07:08:52;;;;;;;30.40;16.50;;;;;;;2.07;74.73;100595.70;219001;1258;139200;-68
2023/03/17 07:13:57;;;;;;;25.10;13.70;;;;;;;2.43;74.23;100600.39;218085;1257;139979;-68
2023/03/17 07:19:03;;;;;;;25.70;16.70;;;;;;;3.04;73.68;100599.45;218578;1258;139851;-67
2023/03/17 07:24:12;;;;;;;58.10;17.80;;;;;;;4.44;73.43;100613.54;218617;1259;139975;-68
2023/03/17 07:29:18;;;;;;;28.60;17.40;;;;;;;5.68;72.14;100612.86;219169;1258;139434;-69
2023/03/17 07:34:24;;;;;;;21.20;13.40;;;;;;;6.82;70.76;100603.08;218432;1259;140626;-69
2023/03/17 07:39:30;;;;;;;35.60;16.10;;;;;;;7.96;69.40;100594.73;218926;1260;140299;-69
2023/03/17 07:44:40;;;;;;;28.10;15.50;;;;;;;8.68;67.48;100581.59;218659;1258;139601;-69
2023/03/17 07:49:45;;;;;;;20.70;12.90;;;;;;;9.01;66.31;100570.35;217793;1259;139727;-69
2023/03/17 07:54:51;;;;;;;24.30;14.70;;;;;;;9.20;65.25;100564.12;219279;1259;139641;-68
2023/03/17 07:59:56;;;;;;;23.50;11.70;;;;;;;9.46;64.68;100570.48;218847;1259;139980;-69
2023/03/17 08:05:02;;;;;;;15.10;10.20;;;;;;;9.33;62.34;100570.54;217838;1261;139521;-70
2023/03/17 08:10:12;;;;;;;16.50;9.20;;;;;;;9.17;62.04;100569.98;217590;1257;141330;-70
2023/03/17 08:15:20;;;;;;;18.70;10.40;;;;;;;9.24;61.61;100572.39;217600;1257;139612;-70
2023/03/17 08:20:25;;;;;;;21.40;10.10;;;;;;;8.99;59.96;100572.84;218824;1260;139994;-70
2023/03/17 08:25:31;;;;;;;18.20;10.00;;;;;;;9.02;59.98;100558.39;217677;1258;139267;-72
2023/03/17 08:30:37;;;;;;;15.10;7.80;;;;;;;8.93;58.91;100553.64;217578;1261;139966;-70
2023/03/17 08:35:44;;;;;;;20.20;9.10;;;;;;;8.86;58.52;100551.71;217622;1261;139163;-70
2023/03/17 08:40:49;;;;;;;9.20;6.80;;;;;;;8.55;57.63;100548.54;217718;1261;139765;-68
2023/03/17 08:46:05;;;;;;;10.30;5.70;;;;;;;8.56;57.76;100537.00;217620;1261;139851;-70
2023/03/17 08:51:11;;;;;;;16.30;6.40;;;;;;;8.93;57.64;100532.94;217609;1258;139034;-70
2023/03/17 08:56:21;;;;;;;10.50;5.60;;;;;;;8.91;56.92;100526.23;218390;1259;138740;-71
2023/03/17 09:01:26;;;;;;;8.40;5.70;;;;;;;8.99;56.48;100520.39;217569;1259;139865;-70
2023/03/17 09:06:31;;;;;;;11.80;6.30;;;;;;;9.08;56.06;100514.17;218522;1259;138950;-70
2023/03/17 09:11:36;;;;;;;13.30;7.50;;;;;;;9.16;54.99;100501.44;217935;1259;139202;-70
2023/03/17 09:16:42;;;;;;;11.40;5.20;;;;;;;9.16;54.84;100492.92;217610;1259;140161;-71
2023/03/17 09:21:47;;;;;;;8.30;4.70;;;;;;;9.18;53.97;100490.00;219727;1257;139542;-71
2023/03/17 09:26:52;;;;;;;10.50;5.60;;;;;;;9.34;53.95;100491.34;217744;1257;142588;-71
2023/03/17 09:31:55;;;;;;;5.50;4.60;;;;;;;9.34;52.15;100484.45;218140;1257;139144;-70
2023/03/17 09:36:59;;;;;;;10.00;6.40;;;;;;;9.28;52.30;100477.83;217626;1257;139974;-69
2023/03/17 09:42:11;;;;;;;10.00;4.50;;;;;;;9.37;51.88;100483.67;217827;1259;139904;-70
2023/03/17 09:47:41;;;;;;;8.10;5.10;;;;;;;9.47;51.87;100490.27;219345;1257;139862;-70
2023/03/17 09:52:46;;;;;;;6.80;5.30;;;;;;;9.57;51.56;100494.09;218528;1257;139421;-71
2023/03/17 09:57:56;;;;;;;9.70;6.30;;;;;;;9.76;51.68;100493.38;218865;1257;138921;-71
2023/03/17 10:03:02;;;;;;;;;;;;;;;9.98;51.50;100491.36;217628;1261;139249;-71
2023/03/17 10:08:32;;;;;;;13.50;6.10;;;;;;;9.87;50.38;100496.52;217960;1258;125830;-71
2023/03/17 10:13:53;;;;;;;11.00;5.70;;;;;;;9.47;49.09;100497.08;217958;1260;139734;-69
2023/03/17 10:19:09;;;;;;;14.30;6.00;;;;;;;9.48;49.92;100499.93;217458;1261;139914;-71
2023/03/17 10:24:14;;;;;;;7.00;4.30;;;;;;;9.73;50.67;100494.75;217589;1261;139931;-71
2023/03/17 10:29:21;;;;;;;12.70;6.80;;;;;;;9.87;50.19;100485.13;217693;1259;138787;-71
2023/03/17 10:34:33;;;;;;;7.40;4.70;;;;;;;9.84;49.40;100477.61;217508;1257;139406;-70
2023/03/17 10:39:46;;;;;;;10.80;7.10;;;;;;;9.98;49.93;100473.61;217497;1258;138743;-71
2023/03/17 10:44:55;;;;;;;8.90;5.00;;;;;;;10.05;48.87;100473.91;217457;1258;138997;-72
2023/03/17 10:50:20;;;;;;;16.90;5.80;;;;;;;10.05;49.34;100470.02;217965;1261;139233;-75
2023/03/17 10:55:30;;;;;;;12.40;5.20;;;;;;;9.98;48.06;100454.03;217731;1261;139327;-73
2023/03/17 11:00:37;;;;;;;9.60;4.80;;;;;;;10.12;48.87;100446.32;217375;1258;138836;-72
2023/03/17 11:06:00;;;;;;;7.70;5.30;;;;;;;10.23;48.54;100435.91;218351;1258;139359;-74
2023/03/17 11:11:20;;;;;;;7.20;4.20;;;;;;;10.16;47.44;100431.13;217580;1257;540348;-71
2023/03/17 11:16:26;;;;;;;7.50;4.80;;;;;;;10.12;47.43;100419.25;220089;1260;142434;-71
2023/03/17 11:22:04;;;;;;;9.50;4.90;;;;;;;10.17;47.55;100421.91;217848;1257;139723;-72
2023/03/17 11:27:37;;;;;;;7.20;4.60;;;;;;;10.24;47.04;100422.77;220269;1259;139618;-74
2023/03/17 11:32:57;;;;;;;5.60;3.50;;;;;;;10.01;46.55;100431.88;218401;1259;139952;-70
2023/03/17 11:38:21;;;;;;;8.00;4.90;;;;;;;10.01;46.73;100435.73;219707;1257;139204;-73
2023/03/17 11:43:36;;;;;;;10.10;6.20;;;;;;;10.12;46.71;100438.11;219511;1258;139883;-71
2023/03/17 11:48:55;;;;;;;10.30;6.00;;;;;;;10.09;46.26;100413.51;217727;1259;139295;-71
2023/03/17 11:54:18;;;;;;;13.80;6.30;;;;;;;9.96;45.97;100407.25;217652;1260;139047;-72
2023/03/17 11:59:36;;;;;;;13.00;5.20;;;;;;;9.96;45.81;100392.79;217680;1259;140154;-70
2023/03/17 12:05:03;;;;;;;8.10;5.70;;;;;;;9.92;45.39;100379.81;218449;1259;139518;-72
2023/03/17 12:10:12;;;;;;;9.80;5.60;;;;;;;10.03;45.95;100368.52;218351;1260;138965;-71
2023/03/17 12:15:33;;;;;;;9.50;4.80;;;;;;;10.10;45.38;100364.90;217492;1257;140613;-72
2023/03/17 12:20:53;;;;;;;11.00;5.40;;;;;;;9.97;44.64;100377.20;217888;1257;138992;-71
2023/03/17 12:26:13;;;;;;;10.00;5.80;;;;;;;9.97;45.19;100367.63;217758;1261;139108;-70
2023/03/17 12:31:29;;;;;;;9.40;4.50;;;;;;;10.01;44.74;100344.12;217558;1261;140335;-71
2023/03/17 12:36:35;;;;;;;9.80;5.50;;;;;;;10.08;44.73;100325.58;217576;1261;139853;-72
2023/03/17 12:41:58;;;;;;;9.70;5.90;;;;;;;10.08;44.40;100330.48;217576;1261;139674;-71
2023/03/17 12:47:17;;;;;;;12.50;6.20;;;;;;;9.92;44.50;100330.73;217773;1261;139528;-71
2023/03/17 12:52:40;;;;;;;6.90;5.10;;;;;;;9.84;44.72;100344.30;217595;1261;139873;-72
2023/03/17 12:57:57;;;;;;;8.70;5.80;;;;;;;9.94;45.09;100337.43;217651;1257;140820;-70
2023/03/17 13:03:29;;;;;;;11.50;5.30;;;;;;;9.93;44.63;100322.45;218910;1258;138791;-72
2023/03/17 13:08:36;;;;;;;9.60;6.40;;;;;;;9.92;44.65;100316.67;217366;1257;138902;-69
2023/03/17 13:13:53;;;;;;;;;;;;;;;10.02;44.46;100319.64;217534;1261;138720;-73
2023/03/17 13:19:21;;;;;;;4.20;3.80;;;;;;;10.09;44.77;100323.43;218090;1258;125607;-75
2023/03/17 13:24:41;;;;;;;5.90;4.80;;;;;;;10.09;43.51;100308.94;218008;1261;139109;-71
2023/03/17 13:29:46;;;;;;;5.90;4.50;;;;;;;10.03;42.91;100301.45;219493;1261;139023;-71
2023/03/17 13:35:01;;;;;;;12.00;5.00;;;;;;;9.85;42.74;100290.55;219083;1258;140374;-72
2023/03/17 13:40:12;;;;;;;7.30;5.20;;;;;;;9.87;42.82;100286.11;217957;1257;138913;-72
2023/03/17 13:45:33;;;;;;;7.30;4.70;;;;;;;9.92;42.70;100282.39;218919;1262;139605;-71
2023/03/17 13:50:38;;;;;;;9.10;5.60;;;;;;;9.83;42.63;100286.66;217800;1261;139944;-71
2023/03/17 13:56:03;;;;;;;8.90;5.30;;;;;;;9.93;43.40;100272.46;218780;1257;140330;-77
2023/03/17 14:01:12;;;;;;;8.60;4.90;;;;;;;10.01;42.71;100271.63;218128;1257;139722;-73
2023/03/17 14:06:21;;;;;;;8.30;4.10;;;;;;;9.93;42.24;100270.22;217762;1260;139126;-74
2023/03/17 14:11:35;;;;;;;10.60;4.40;;;;;;;9.80;41.37;100250.53;217611;1258;138561;-77
2023/03/17 14:16:50;;;;;;;7.30;4.80;;;;;;;9.62;41.53;100247.10;217534;1261;139316;-73
2023/03/17 14:22:01;;;;;;;5.40;3.50;;;;;;;9.56;41.78;100240.88;217465;1260;138782;-77
2023/03/17 14:27:08;;;;;;;7.50;4.10;;;;;;;9.54;41.92;100237.58;217543;1258;138767;-70
2023/03/17 14:32:15;;;;;;;9.50;4.90;;;;;;;9.48;42.17;100225.14;217523;1257;139264;-72
2023/03/17 14:37:19;;;;;;;6.90;5.50;;;;;;;9.47;42.70;100219.86;217748;1257;138646;-75
2023/03/17 14:42:28;;;;;;;11.10;4.70;;;;;;;9.43;42.85;100207.83;218219;1257;139545;-71
2023/03/17 14:47:44;;;;;;;12.10;4.40;;;;;;;9.40;42.53;100193.05;217351;1258;139679;-73
2023/03/17 14:52:49;;;;;;;22.80;4.90;;;;;;;9.27;42.47;100184.23;217690;1259;139243;-73
2023/03/17 14:57:53;;;;;;;11.30;5.10;;;;;;;9.11;42.20;100177.45;217396;1257;140084;-74
2023/03/17 15:03:02;;;;;;;8.00;4.60;;;;;;;9.02;42.57;100179.06;218730;1257;140006;-81
2023/03/17 15:08:37;;;;;;;7.90;5.00;;;;;;;9.03;42.63;100177.02;218718;1257;138984;-78
2023/03/17 15:13:43;;;;;;;6.20;3.60;;;;;;;8.97;42.34;100174.46;217739;1260;139841;-74
2023/03/17 15:18:52;;;;;;;7.80;4.30;;;;;;;8.84;42.30;100172.78;218522;1258;140494;-74
2023/03/17 15:23:57;;;;;;;4.30;3.80;;;;;;;8.72;42.76;100157.87;219106;1257;140106;-79
2023/03/17 15:29:03;;;;;;;6.20;3.90;;;;;;;8.64;42.57;100164.36;217430;1257;139428;-71
2023/03/17 15:34:13;;;;;;;8.20;5.40;;;;;;;8.57;42.74;100164.32;218384;1257;138744;-71
2023/03/17 15:39:24;;;;;;;9.80;5.70;;;;;;;8.46;42.28;100172.96;218476;1257;142002;-67
2023/03/17 15:44:33;;;;;;;11.30;5.00;;;;;;;8.34;42.37;100169.26;218125;1257;138826;-75
2023/03/17 15:49:38;;;;;;;8.30;4.30;;;;;;;8.24;42.52;100171.73;218261;1257;141006;-69
2023/03/17 15:54:42;;;;;;;4.60;4.20;;;;;;;8.12;42.63;100165.27;217517;1260;139461;-74
2023/03/17 15:59:46;;;;;;;7.50;4.50;;;;;;;7.95;42.81;100169.52;217218;1260;139010;-73
2023/03/17 16:04:50;;;;;;;10.10;4.40;;;;;;;7.83;42.83;100179.85;217174;1257;141010;-70
2023/03/17 16:09:54;;;;;;;9.80;6.10;;;;;;;7.71;43.10;100184.63;217204;1260;139264;-77
2023/03/17 16:14:57;;;;;;;9.10;5.30;;;;;;;7.60;43.24;100180.54;217331;1257;142263;-80
2023/03/17 16:20:26;;;;;;;9.80;6.60;;;;;;;7.48;43.18;100187.54;218125;1257;139151;-75
2023/03/17 16:25:31;;;;;;;5.80;3.90;;;;;;;7.38;43.49;100194.55;217056;1260;139184;-71
2023/03/17 16:30:35;;;;;;;8.70;5.50;;;;;;;7.28;43.18;100188.67;217341;1261;138760;-70
2023/03/17 16:35:39;;;;;;;9.60;5.40;;;;;;;7.18;43.48;100187.34;217406;1257;139105;-71
2023/03/17 16:40:49;;;;;;;8.20;5.10;;;;;;;7.03;43.87;100186.49;217403;1257;138848;-71
2023/03/17 16:45:57;;;;;;;5.90;4.10;;;;;;;6.84;43.72;100193.38;217709;1258;138731;-67
2023/03/17 16:51:02;;;;;;;9.60;4.70;;;;;;;6.69;43.97;100192.72;217126;1257;138825;-70
2023/03/17 16:56:14;;;;;;;10.40;6.40;;;;;;;6.54;44.50;100195.17;218019;1257;138924;-70
2023/03/17 17:01:22;;;;;;;38.20;12.60;;;;;;;6.38;44.86;100195.35;217224;1257;138696;-69
2023/03/17 17:06:26;;;;;;;99.30;28.30;;;;;;;6.25;44.76;100191.29;217329;1257;139775;-68
2023/03/17 17:11:30;;;;;;;86.70;27.40;;;;;;;6.11;45.27;100193.90;217290;1260;139544;-69
2023/03/17 17:16:38;;;;;;;105.30;35.60;;;;;;;5.99;45.78;100194.23;217335;1258;140347;-68
2023/03/17 17:21:43;;;;;;;77.50;29.00;;;;;;;5.87;46.37;100183.29;217273;1257;139649;-69
2023/03/17 17:26:47;;;;;;;46.40;19.00;;;;;;;5.77;46.65;100189.86;219313;1256;139873;-70
2023/03/17 17:31:53;;;;;;;61.80;22.70;;;;;;;5.67;47.02;100196.29;218564;1256;139337;-70
2023/03/17 17:36:58;;;;;;;38.20;16.10;;;;;;;5.60;47.43;100191.42;218672;1256;139711;-70
2023/03/17 17:42:02;;;;;;;25.30;12.00;;;;;;;5.52;47.81;100189.08;217616;1258;140242;-70
2023/03/17 17:47:06;;;;;;;28.50;12.30;;;;;;;5.46;48.14;100184.00;217056;1260;139080;-69
2023/03/17 17:52:10;;;;;;;59.30;17.30;;;;;;;5.40;47.90;100182.07;217717;1257;139762;-70
2023/03/17 17:57:15;;;;;;;28.40;9.10;;;;;;;5.34;48.09;100184.38;218756;1258;139513;-69
2023/03/17 18:02:19;;;;;;;31.30;12.70;;;;;;;5.30;48.33;100184.01;217146;1258;139207;-69
2023/03/17 18:07:24;;;;;;;21.40;9.00;;;;;;;5.27;48.37;100179.70;218723;1257;139585;-70
2023/03/17 18:12:28;;;;;;;32.70;12.90;;;;;;;5.22;48.38;100182.38;217310;1257;138503;-71
2023/03/17 18:17:34;;;;;;;21.40;8.40;;;;;;;5.17;48.51;100174.63;217917;1257;139583;-70
2023/03/17 18:22:39;;;;;;;19.10;8.30;;;;;;;5.12;48.63;100177.27;217732;1257;139664;-70
2023/03/17 18:27:49;;;;;;;14.90;10.20;;;;;;;5.08;48.66;100179.73;218008;1257;139813;-69
2023/03/17 18:33:08;;;;;;;16.60;8.50;;;;;;;4.98;49.12;100180.77;217856;1256;140041;-68
2023/03/17 18:38:17;;;;;;;13.80;8.20;;;;;;;4.91;48.75;100174.27;218186;1257;139309;-69
2023/03/17 18:43:29;;;;;;;15.70;8.10;;;;;;;4.83;48.98;100170.63;217784;1260;139752;-71
2023/03/17 18:48:36;;;;;;;27.70;10.30;;;;;;;4.78;48.90;100165.77;217584;1256;139814;-71
2023/03/17 18:53:45;;;;;;;14.50;6.90;;;;;;;4.74;49.26;100168.08;217578;1256;142050;-70
2023/03/17 18:58:59;;;;;;;13.30;6.90;;;;;;;4.69;49.40;100162.52;218311;1256;138866;-70
2023/03/17 19:04:04;;;;;;;14.90;6.40;;;;;;;4.65;49.14;100158.21;217583;1260;139753;-69
2023/03/17 19:09:10;;;;;;;11.90;6.60;;;;;;;4.63;49.31;100157.45;219133;1257;140199;-70
2023/03/17 19:14:14;;;;;;;13.30;6.70;;;;;;;4.61;49.54;100156.83;218024;1256;139227;-67
2023/03/17 19:19:18;;;;;;;11.30;7.20;;;;;;;4.58;49.47;100154.41;217569;1260;139016;-67
2023/03/17 19:24:22;;;;;;;16.10;6.70;;;;;;;4.54;49.35;100157.79;220208;1256;140307;-68
2023/03/17 19:29:26;;;;;;;11.40;9.50;;;;;;;4.52;49.61;100157.59;220499;1257;142602;-68
2023/03/17 19:34:30;;;;;;;11.30;7.00;;;;;;;4.49;49.57;100158.61;220126;1256;139719;-68
2023/03/17 19:39:34;;;;;;;12.10;6.80;;;;;;;4.48;49.62;100154.67;218844;1256;139145;-68
2023/03/17 19:44:39;;;;;;;20.20;8.60;;;;;;;4.44;49.77;100148.80;217552;1256;139782;-67
2023/03/17 19:49:46;;;;;;;13.50;7.70;;;;;;;4.37;50.07;100146.15;218591;1256;139367;-67
2023/03/17 19:54:51;;;;;;;24.10;8.60;;;;;;;4.29;50.15;100147.80;218484;1258;140159;-66
2023/03/17 19:59:56;;;;;;;15.80;6.90;;;;;;;4.25;50.35;100146.23;217803;1256;139653;-68
2023/03/17 20:05:01;;;;;;;16.40;7.40;;;;;;;4.20;50.22;100147.86;217936;1259;229015;-67
2023/03/17 20:10:06;;;;;;;11.40;6.90;;;;;;;4.15;50.48;100146.53;217939;1256;140260;-67
2023/03/17 20:15:12;;;;;;;13.60;8.40;;;;;;;4.09;50.40;100154.11;218053;1256;139500;-68
2023/03/17 20:20:17;;;;;;;10.30;6.70;;;;;;;4.03;50.45;100161.70;217810;1257;139774;-68
2023/03/17 20:25:21;;;;;;;18.80;8.90;;;;;;;3.97;50.55;100163.41;218906;1256;139082;-68
2023/03/17 20:30:25;;;;;;;18.00;9.90;;;;;;;3.91;50.84;100157.81;219648;1255;158477;-67
2023/03/17 20:35:31;;;;;;;15.90;7.60;;;;;;;3.85;51.09;100153.33;218992;1254;138913;-68
2023/03/17 20:40:37;;;;;;;19.70;8.90;;;;;;;3.80;51.26;100152.65;218147;1256;139097;-66
2023/03/17 20:45:43;;;;;;;14.90;7.70;;;;;;;3.76;51.20;100159.48;218298;1256;139712;-67
2023/03/17 20:50:49;;;;;;;19.50;9.90;;;;;;;3.68;51.54;100154.58;219096;1256;139933;-66
2023/03/17 20:55:56;;;;;;;17.90;9.80;;;;;;;3.58;51.70;100154.85;219617;1256;139794;-68
2023/03/17 21:01:00;;;;;;;17.20;8.80;;;;;;;3.51;52.13;100155.54;219713;1255;139625;-68
2023/03/17 21:06:05;;;;;;;17.40;9.50;;;;;;;3.48;52.34;100150.27;219176;1257;139518;-66
2023/03/17 21:11:17;;;;;;;12.30;8.30;;;;;;;3.41;52.36;100141.71;217896;1256;139318;-67
2023/03/17 21:16:26;;;;;;;16.60;9.30;;;;;;;3.34;52.54;100136.71;219100;1256;140149;-66
2023/03/17 21:21:34;;;;;;;14.30;8.10;;;;;;;3.28;52.92;100127.61;219716;1256;139184;-68
2023/03/17 21:26:40;;;;;;;12.80;9.20;;;;;;;3.23;53.18;100131.73;219993;1256;139772;-69
2023/03/17 21:31:43;;;;;;;12.40;8.50;;;;;;;3.18;53.39;100124.92;220096;1255;139593;-68
2023/03/17 21:36:47;;;;;;;14.00;8.50;;;;;;;3.15;53.71;100124.49;219297;1255;139196;-68
2023/03/17 21:41:51;;;;;;;22.40;10.60;;;;;;;3.13;53.77;100123.94;219615;1255;139884;-69
2023/03/17 21:46:56;;;;;;;17.30;10.90;;;;;;;3.11;53.91;100122.60;218933;1256;139672;-66
2023/03/17 21:52:03;;;;;;;18.90;8.70;;;;;;;3.06;54.40;100118.84;218232;1258;140788;-67
2023/03/17 21:57:08;;;;;;;18.30;10.10;;;;;;;3.01;54.33;100115.09;218734;1258;140068;-68
2023/03/17 22:02:12;;;;;;;20.30;8.80;;;;;;;2.98;54.49;100119.86;217854;1257;140223;-68
2023/03/17 22:07:17;;;;;;;23.50;11.50;;;;;;;2.98;54.86;100124.46;218748;1256;139541;-69
2023/03/17 22:12:23;;;;;;;21.60;9.90;;;;;;;2.96;54.93;100120.50;217909;1256;139915;-69
2023/03/17 22:17:29;;;;;;;19.50;10.60;;;;;;;2.91;55.28;100121.18;217834;1257;139245;-68
2023/03/17 22:22:34;;;;;;;14.20;8.80;;;;;;;2.89;55.31;100113.40;217833;1256;140293;-68
2023/03/17 22:27:40;;;;;;;14.60;10.00;;;;;;;2.86;55.70;100113.71;218777;1257;139435;-68
2023/03/17 22:32:45;;;;;;;21.80;10.70;;;;;;;2.84;55.71;100108.86;218315;1258;139311;-68
2023/03/17 22:37:51;;;;;;;12.90;8.80;;;;;;;2.82;55.80;100111.49;218747;1256;139251;-66
2023/03/17 22:42:57;;;;;;;11.30;7.90;;;;;;;2.82;55.84;100113.67;218869;1257;140553;-68
2023/03/17 22:48:01;;;;;;;19.10;8.20;;;;;;;2.79;56.03;100110.98;219166;1257;139015;-69
2023/03/17 22:53:06;;;;;;;17.30;9.50;;;;;;;2.78;56.14;100102.21;219204;1255;140114;-68
2023/03/17 22:58:11;;;;;;;20.50;9.30;;;;;;;2.77;56.52;100091.47;218168;1256;138889;-67
2023/03/17 23:03:16;;;;;;;14.50;8.40;;;;;;;2.73;56.50;100089.98;218608;1254;140661;-67
2023/03/17 23:08:20;;;;;;;19.00;8.80;;;;;;;2.69;56.70;100086.70;219332;1254;139334;-68